Repto Solano, Puerto Rico
Current Conditions -  °F | °C
As of 2:56 PM on Sunday 23 Nov 2014 (Local Time) from TJSJ Reporting Station
Scattered Clouds Scattered Clouds  
Wind Chill: 85°   Ceiling: Unl
Heat Index: 92°   Visibility: 10mi
Dew Point: 73°   Wind: 17mph
Humidity: 67%   Direction: 80°E
Pressure: 29.97"   Gusts: NA
Location:  18.2361°N, 66.0369°W
Report Text: TJSJ 231856Z 08015KT 10SM FEW026 SCT050 SCT090 29/23 A2997 RMK AO2 SLP147 T02940228 $
Loading
Personal Weather Stations






























Interactive Weather Map New forecast layout! Learn more

10-Day Weather Forecast

Advertisements
Track Severe Weather on mobile